Etusivu
METAR-TAF:

METAR-TAF

Lentoasemat :

Robinson Municipal Airport

Robinson, Illinois, Yhdysvallat

Leveyspiiri: 39-00-57N, Pituuspiiri: 087-38-59W, korkeus merenpinnasta: 141 m

Tämänhetkinen sää

Tämä raportti tehtiin 17 minuuttia sitten, kello 04.55 UTC
Tuuli 6 kn pohjoisesta
Lämpötila 7°C
Kosteus 100%
Ilmanpaine 1020 hPa
Näkyvyys: 6.4 km
Pilvistä 500 ft:n korkeudessa
sadetta

METAR: KRSV 050455Z AUTO 01006KT 4SM RA OVC005 07/07 A3012 RMK AO2 P0001 T00730073

Aika: 00:12 (05:12 UTC)


TAF: puuttuu

Säähavainnot ja -ennusteet yli 4000 lentoasemalta (METAR- ja TAF-raportit).

Käytössä olevat sääasemat on merkitty karttaan keltaisilla ja punaisilla pisteillä.

Aseta hiiri pisteen päälle nähdäksesi sääaseman nimen.

Klikkaa sitten nähdäksesi säähavainnot ja -ennusteet.

Kartan vaihtaminen: klikkaa mustalla rastilla varustettuja vihreitä pisteitä, niin voit zoomata sisään; viivalla varustettua vihreää pistettä, niin voit zoomata ulos tai vihreitä nuolia, niin pääset viereisille kartoille.


METAR-TAF: